VIR47GH EGLL-CYYZ
Flight info
| Callsign | VIR47GH |
|---|---|
| Flight time | N/A |
| Altitude | 36000 |
| Route | CPT L9 BIBPE DCT BUCGO DCT FELCA DCT NICXI DCT BAKUR DCT NEBIN/M085F380 DCT 5330N02000W 5230N03000W 51N040W 4930N05000W DCT IBERG/N0485F380 DCT MIILS/N0495F400 DCT VILRO DCT SAVEX Q806 TUKIR RAGID6 |
| Aircraft | A35K/H-SDE2E3GHIJ3J4J5LM1ORWXY/LB1D1 |
Departure
| Time | N/A |
|---|---|
| Airport | London Heathrow Airport (EGLL) |
Arrival
| Time | 2026-05-08 00:16 |
|---|---|
| Airport | Toronto Pearson International Airport (CYYZ) |
| Time | Latitude | Longitude | Altitude | Speed | Heading |
|---|---|---|---|---|---|
| 2026-05-07 23:37 | 45.08216 | -76.20703 | 39865 ft | 487 kts | 195° |
| 2026-05-07 23:37 | 45.04946 | -76.21849 | 39865 ft | 483 kts | 202° |
| 2026-05-07 23:38 | 44.98842 | -76.25640 | 39866 ft | 476 kts | 216° |
| 2026-05-07 23:38 | 44.93844 | -76.31519 | 39862 ft | 469 kts | 231° |
| 2026-05-07 23:39 | 44.90346 | -76.39190 | 39860 ft | 464 kts | 250° |
| 2026-05-07 23:39 | 44.88655 | -76.47926 | 39873 ft | 456 kts | 257° |
| 2026-05-07 23:40 | 44.87310 | -76.56498 | 39877 ft | 449 kts | 257° |
| 2026-05-07 23:40 | 44.86121 | -76.64198 | 39876 ft | 448 kts | 257° |
| 2026-05-07 23:41 | 44.84793 | -76.72790 | 39878 ft | 449 kts | 257° |
| 2026-05-07 23:41 | 44.83459 | -76.81403 | 39878 ft | 449 kts | 257° |
| 2026-05-07 23:42 | 44.82122 | -76.89996 | 39862 ft | 449 kts | 257° |
| 2026-05-07 23:42 | 44.80176 | -76.98324 | 39882 ft | 449 kts | 244° |
| 2026-05-07 23:43 | 44.77161 | -77.06031 | 39884 ft | 450 kts | 242° |
| 2026-05-07 23:43 | 44.74066 | -77.13628 | 39883 ft | 451 kts | 242° |
| 2026-05-07 23:44 | 44.70955 | -77.21279 | 39892 ft | 451 kts | 242° |
| 2026-05-07 23:44 | 44.67846 | -77.28922 | 39753 ft | 449 kts | 242° |
| 2026-05-07 23:45 | 44.66305 | -77.32694 | 39529 ft | 439 kts | 242° |
| 2026-05-07 23:45 | 44.64798 | -77.36375 | 39190 ft | 433 kts | 242° |
| 2026-05-07 23:45 | 44.63297 | -77.40043 | 38578 ft | 434 kts | 242° |
| 2026-05-07 23:45 | 44.61793 | -77.43719 | 37874 ft | 433 kts | 242° |
| 2026-05-07 23:46 | 44.60295 | -77.47377 | 37261 ft | 431 kts | 242° |
| 2026-05-07 23:46 | 44.58818 | -77.50984 | 36635 ft | 430 kts | 242° |
| 2026-05-07 23:46 | 44.57327 | -77.54619 | 36010 ft | 429 kts | 242° |
| 2026-05-07 23:46 | 44.55842 | -77.58237 | 35429 ft | 427 kts | 242° |
| 2026-05-07 23:47 | 44.54364 | -77.61831 | 34956 ft | 423 kts | 242° |
| 2026-05-07 23:47 | 44.52900 | -77.65384 | 34493 ft | 419 kts | 242° |
| 2026-05-07 23:47 | 44.51447 | -77.68909 | 34008 ft | 415 kts | 242° |
| 2026-05-07 23:47 | 44.50026 | -77.72349 | 33504 ft | 411 kts | 242° |
| 2026-05-07 23:48 | 44.48603 | -77.75784 | 33033 ft | 406 kts | 242° |
| 2026-05-07 23:48 | 44.47192 | -77.79180 | 32579 ft | 400 kts | 242° |
| 2026-05-07 23:48 | 44.45801 | -77.82533 | 32115 ft | 395 kts | 242° |
| 2026-05-07 23:48 | 44.44426 | -77.85835 | 31668 ft | 390 kts | 242° |
| 2026-05-07 23:49 | 44.43067 | -77.89094 | 31220 ft | 385 kts | 242° |
| 2026-05-07 23:49 | 44.41725 | -77.92310 | 30789 ft | 381 kts | 242° |
| 2026-05-07 23:49 | 44.40396 | -77.95490 | 30363 ft | 377 kts | 242° |
| 2026-05-07 23:49 | 44.39080 | -77.98637 | 29918 ft | 373 kts | 242° |
| 2026-05-07 23:50 | 44.37776 | -78.01753 | 29432 ft | 368 kts | 242° |
| 2026-05-07 23:50 | 44.36486 | -78.04829 | 28995 ft | 366 kts | 242° |
| 2026-05-07 23:50 | 44.35204 | -78.07891 | 28581 ft | 364 kts | 242° |
| 2026-05-07 23:50 | 44.33927 | -78.10932 | 28167 ft | 362 kts | 242° |
| 2026-05-07 23:51 | 44.32654 | -78.13955 | 27759 ft | 360 kts | 242° |
| 2026-05-07 23:51 | 44.31386 | -78.16965 | 27347 ft | 358 kts | 242° |
| 2026-05-07 23:51 | 44.30125 | -78.19957 | 26907 ft | 356 kts | 242° |
| 2026-05-07 23:51 | 44.28869 | -78.22932 | 26446 ft | 355 kts | 242° |
| 2026-05-07 23:52 | 44.27636 | -78.25852 | 26046 ft | 353 kts | 242° |
| 2026-05-07 23:52 | 44.26390 | -78.28800 | 25621 ft | 352 kts | 241° |
| 2026-05-07 23:52 | 44.25149 | -78.31733 | 25207 ft | 350 kts | 241° |
| 2026-05-07 23:52 | 44.23911 | -78.34655 | 24785 ft | 349 kts | 241° |
| 2026-05-07 23:53 | 44.22679 | -78.37560 | 24341 ft | 348 kts | 241° |
| 2026-05-07 23:53 | 44.21449 | -78.40457 | 23924 ft | 346 kts | 241° |
| 2026-05-07 23:53 | 44.20228 | -78.43334 | 23513 ft | 345 kts | 241° |
| 2026-05-07 23:53 | 44.19029 | -78.46223 | 22995 ft | 344 kts | 242° |
| 2026-05-07 23:54 | 44.17824 | -78.49076 | 22576 ft | 340 kts | 241° |
| 2026-05-07 23:54 | 44.16613 | -78.51884 | 22157 ft | 338 kts | 241° |
| 2026-05-07 23:54 | 44.15402 | -78.54698 | 21720 ft | 336 kts | 241° |
| 2026-05-07 23:54 | 44.14205 | -78.57486 | 21311 ft | 334 kts | 241° |
| 2026-05-07 23:55 | 44.13033 | -78.60217 | 20891 ft | 332 kts | 241° |
| 2026-05-07 23:55 | 44.11856 | -78.62965 | 20485 ft | 329 kts | 241° |
| 2026-05-07 23:55 | 44.10671 | -78.65732 | 20059 ft | 327 kts | 241° |
| 2026-05-07 23:55 | 44.09601 | -78.68455 | 19681 ft | 325 kts | 242° |
| 2026-05-07 23:56 | 44.08445 | -78.71152 | 19245 ft | 324 kts | 240° |
| 2026-05-07 23:56 | 44.07268 | -78.73812 | 18819 ft | 322 kts | 240° |
| 2026-05-07 23:56 | 44.06099 | -78.76464 | 18395 ft | 320 kts | 240° |
| 2026-05-07 23:56 | 44.04949 | -78.79098 | 17956 ft | 318 kts | 241° |
| 2026-05-07 23:57 | 44.03809 | -78.81715 | 17546 ft | 315 kts | 240° |
| 2026-05-07 23:57 | 44.02643 | -78.84281 | 17150 ft | 313 kts | 239° |
| 2026-05-07 23:57 | 44.01473 | -78.86812 | 16739 ft | 310 kts | 239° |
| 2026-05-07 23:57 | 44.00313 | -78.89325 | 16364 ft | 307 kts | 239° |
| 2026-05-07 23:58 | 43.99183 | -78.91777 | 16199 ft | 295 kts | 240° |
| 2026-05-07 23:58 | 43.98101 | -78.94120 | 16088 ft | 282 kts | 240° |
| 2026-05-07 23:58 | 43.97060 | -78.96373 | 15960 ft | 272 kts | 240° |
| 2026-05-07 23:58 | 43.96056 | -78.98544 | 15774 ft | 265 kts | 240° |
| 2026-05-07 23:59 | 43.95067 | -79.00688 | 15471 ft | 263 kts | 240° |
| 2026-05-07 23:59 | 43.94082 | -79.02829 | 15160 ft | 262 kts | 240° |
| 2026-05-07 23:59 | 43.93103 | -79.04959 | 14863 ft | 264 kts | 240° |
| 2026-05-07 23:59 | 43.92088 | -79.07177 | 14750 ft | 278 kts | 240° |
| 2026-05-08 00:00 | 43.91039 | -79.09463 | 14571 ft | 280 kts | 240° |
| 2026-05-08 00:00 | 43.90008 | -79.11707 | 14102 ft | 279 kts | 240° |
| 2026-05-08 00:00 | 43.88970 | -79.13962 | 13741 ft | 275 kts | 239° |
| 2026-05-08 00:00 | 43.87945 | -79.16184 | 13433 ft | 272 kts | 239° |
| 2026-05-08 00:01 | 43.86926 | -79.18390 | 13150 ft | 271 kts | 239° |
| 2026-05-08 00:01 | 43.85913 | -79.20583 | 12876 ft | 269 kts | 240° |
| 2026-05-08 00:01 | 43.84906 | -79.22761 | 12599 ft | 268 kts | 240° |
| 2026-05-08 00:01 | 43.83902 | -79.24930 | 12329 ft | 267 kts | 240° |
| 2026-05-08 00:02 | 43.82915 | -79.27061 | 12062 ft | 266 kts | 240° |
| 2026-05-08 00:02 | 43.81919 | -79.29211 | 11788 ft | 264 kts | 240° |
| 2026-05-08 00:02 | 43.80937 | -79.31327 | 11612 ft | 255 kts | 240° |
| 2026-05-08 00:02 | 43.79996 | -79.33343 | 11452 ft | 244 kts | 240° |
| 2026-05-08 00:03 | 43.79130 | -79.35288 | 11298 ft | 232 kts | 244° |
| 2026-05-08 00:03 | 43.78593 | -79.37323 | 11081 ft | 219 kts | 258° |
| 2026-05-08 00:03 | 43.78329 | -79.39358 | 10724 ft | 211 kts | 262° |
| 2026-05-08 00:03 | 43.78129 | -79.41365 | 10472 ft | 210 kts | 263° |
| 2026-05-08 00:04 | 43.77934 | -79.43377 | 10238 ft | 211 kts | 262° |
| 2026-05-08 00:04 | 43.77737 | -79.45389 | 9991 ft | 211 kts | 262° |
| 2026-05-08 00:04 | 43.77539 | -79.47370 | 9762 ft | 211 kts | 262° |
| 2026-05-08 00:04 | 43.77337 | -79.49378 | 9530 ft | 210 kts | 262° |
| 2026-05-08 00:05 | 43.77135 | -79.51378 | 9308 ft | 210 kts | 262° |
| 2026-05-08 00:05 | 43.76932 | -79.53380 | 9092 ft | 210 kts | 262° |
| 2026-05-08 00:05 | 43.76727 | -79.55388 | 8872 ft | 210 kts | 262° |
| 2026-05-08 00:05 | 43.76521 | -79.57401 | 8666 ft | 211 kts | 262° |
| 2026-05-08 00:06 | 43.76315 | -79.59413 | 8441 ft | 211 kts | 262° |
| 2026-05-08 00:06 | 43.76111 | -79.61400 | 8215 ft | 211 kts | 262° |
| 2026-05-08 00:06 | 43.75903 | -79.63426 | 7951 ft | 211 kts | 262° |
| 2026-05-08 00:06 | 43.75697 | -79.65440 | 7666 ft | 211 kts | 262° |
| 2026-05-08 00:07 | 43.75491 | -79.67428 | 7378 ft | 212 kts | 262° |
| 2026-05-08 00:07 | 43.75281 | -79.69449 | 7109 ft | 212 kts | 262° |
| 2026-05-08 00:07 | 43.74996 | -79.71465 | 6822 ft | 214 kts | 253° |
| 2026-05-08 00:07 | 43.74274 | -79.73261 | 6528 ft | 216 kts | 233° |
| 2026-05-08 00:08 | 43.73272 | -79.74825 | 6225 ft | 217 kts | 229° |
| 2026-05-08 00:08 | 43.72236 | -79.76311 | 5907 ft | 217 kts | 228° |
| 2026-05-08 00:08 | 43.71181 | -79.77811 | 5633 ft | 217 kts | 228° |
| 2026-05-08 00:08 | 43.70133 | -79.79309 | 5400 ft | 217 kts | 229° |
| 2026-05-08 00:09 | 43.69086 | -79.80814 | 5136 ft | 216 kts | 229° |
| 2026-05-08 00:09 | 43.68046 | -79.82311 | 4881 ft | 214 kts | 229° |
| 2026-05-08 00:09 | 43.67020 | -79.83791 | 4665 ft | 213 kts | 229° |
| 2026-05-08 00:09 | 43.65992 | -79.85274 | 4494 ft | 215 kts | 229° |
| 2026-05-08 00:10 | 43.64964 | -79.86769 | 4340 ft | 214 kts | 229° |
| 2026-05-08 00:10 | 43.63932 | -79.88257 | 4183 ft | 214 kts | 229° |
| 2026-05-08 00:10 | 43.62693 | -79.89400 | 3999 ft | 219 kts | 202° |
| 2026-05-08 00:10 | 43.61188 | -79.89522 | 3801 ft | 224 kts | 172° |
| 2026-05-08 00:11 | 43.59779 | -79.88615 | 3506 ft | 223 kts | 146° |
| 2026-05-08 00:11 | 43.58603 | -79.87328 | 3343 ft | 210 kts | 142° |
| 2026-05-08 00:11 | 43.57753 | -79.85734 | 3056 ft | 209 kts | 110° |
| 2026-05-08 00:11 | 43.57610 | -79.83741 | 3013 ft | 210 kts | 85° |
| 2026-05-08 00:12 | 43.57762 | -79.81744 | 3011 ft | 208 kts | 82° |
| 2026-05-08 00:12 | 43.58211 | -79.79856 | 3010 ft | 206 kts | 64° |
| 2026-05-08 00:12 | 43.59079 | -79.78316 | 3021 ft | 201 kts | 39° |
| 2026-05-08 00:12 | 43.60088 | -79.77055 | 2840 ft | 192 kts | 41° |
| 2026-05-08 00:13 | 43.60697 | -79.76184 | 2636 ft | 189 kts | 46° |
| 2026-05-08 00:13 | 43.61583 | -79.74843 | 2371 ft | 189 kts | 44° |
| 2026-05-08 00:13 | 43.62478 | -79.73556 | 2114 ft | 182 kts | 44° |
| 2026-05-08 00:13 | 43.63584 | -79.71960 | 1780 ft | 166 kts | 44° |
| 2026-05-08 00:14 | 43.64102 | -79.71210 | 1627 ft | 159 kts | 44° |
| 2026-05-08 00:14 | 43.64839 | -79.70142 | 1410 ft | 148 kts | 44° |
| 2026-05-08 00:14 | 43.65533 | -79.69137 | 1180 ft | 141 kts | 44° |
| 2026-05-08 00:14 | 43.66217 | -79.68199 | 989 ft | 136 kts | 47° |
| 2026-05-08 00:15 | 43.66867 | -79.67188 | 797 ft | 143 kts | 42° |
| 2026-05-08 00:15 | 43.67563 | -79.66196 | 621 ft | 143 kts | 44° |
| 2026-05-08 00:15 | 43.68215 | -79.65247 | 576 ft | 122 kts | 46° |
| 2026-05-08 00:15 | 43.68721 | -79.64508 | 575 ft | 91 kts | 46° |
| 2026-05-08 00:16 | 43.69036 | -79.64056 | 576 ft | 49 kts | 46° |
| 2026-05-08 00:16 | 43.69168 | -79.63829 | 578 ft | 15 kts | 88° |
| 2026-05-08 00:16 | 43.69120 | -79.63730 | 579 ft | 11 kts | 137° |
| 2026-05-08 00:16 | 43.69078 | -79.63675 | 578 ft | 7 kts | 135° |
| 2026-05-08 00:17 | 43.69033 | -79.63614 | 577 ft | 12 kts | 135° |
| 2026-05-08 00:17 | 43.68963 | -79.63523 | 578 ft | 16 kts | 137° |
| 2026-05-08 00:17 | 43.68873 | -79.63408 | 577 ft | 19 kts | 137° |
| 2026-05-08 00:17 | 43.68761 | -79.63262 | 575 ft | 24 kts | 136° |
| 2026-05-08 00:18 | 43.68631 | -79.63092 | 567 ft | 27 kts | 137° |
| 2026-05-08 00:18 | 43.68487 | -79.62904 | 573 ft | 29 kts | 136° |
| 2026-05-08 00:18 | 43.68332 | -79.62703 | 577 ft | 31 kts | 136° |
| 2026-05-08 00:18 | 43.68170 | -79.62491 | 574 ft | 34 kts | 137° |
| 2026-05-08 00:19 | 43.68000 | -79.62272 | 571 ft | 27 kts | 137° |
| 2026-05-08 00:19 | 43.67915 | -79.62154 | 577 ft | 12 kts | 118° |
| 2026-05-08 00:19 | 43.67953 | -79.62048 | 575 ft | 15 kts | 47° |
| 2026-05-08 00:19 | 43.68043 | -79.62024 | 576 ft | 14 kts | 323° |
| 2026-05-08 00:20 | 43.68092 | -79.62077 | 575 ft | 7 kts | 335° |
| 2026-05-08 00:20 | 43.68142 | -79.62062 | 567 ft | 8 kts | 28° |
| 2026-05-08 00:20 | 43.68173 | -79.62037 | 576 ft | 0 kts | 31° |